sensor_id;sensor_type;location;lat;lon;timestamp;pressure;altitude;pressure_sealevel;temperature;humidity
52361;BME280;38294;42.966;1.608;2023-01-29T04:03:38;98005.75;;;4.38;80.52
52361;BME280;38294;42.966;1.608;2023-01-29T04:06:18;98001.75;;;4.90;77.50
52361;BME280;38294;42.966;1.608;2023-01-29T04:08:56;97997.25;;;5.21;75.39
52361;BME280;38294;42.966;1.608;2023-01-29T04:11:23;98010.97;;;5.02;75.10
52361;BME280;38294;42.966;1.608;2023-01-29T04:13:51;98013.91;;;4.92;76.16
52361;BME280;38294;42.966;1.608;2023-01-29T04:16:20;98011.63;;;5.35;74.07
52361;BME280;38294;42.966;1.608;2023-01-29T04:18:48;98017.81;;;5.13;73.98
52361;BME280;38294;42.966;1.608;2023-01-29T04:21:14;98014.13;;;5.32;74.33
52361;BME280;38294;42.966;1.608;2023-01-29T04:23:40;98010.13;;;5.65;71.92
52361;BME280;38294;42.966;1.608;2023-01-29T04:29:04;98012.44;;;5.58;71.22
52361;BME280;38294;42.966;1.608;2023-01-29T04:32:03;98014.00;;;5.01;74.48
52361;BME280;38294;42.966;1.608;2023-01-29T04:34:28;98016.72;;;5.37;73.53
52361;BME280;38294;42.966;1.608;2023-01-29T04:37:34;98016.47;;;5.60;71.64
52361;BME280;38294;42.966;1.608;2023-01-29T04:40:20;98009.88;;;5.75;71.20
52361;BME280;38294;42.966;1.608;2023-01-29T04:48:28;98028.56;;;5.05;72.98
52361;BME280;38294;42.966;1.608;2023-01-29T04:51:11;98014.91;;;5.46;72.42
52361;BME280;38294;42.966;1.608;2023-01-29T04:53:44;98024.63;;;5.60;70.96
52361;BME280;38294;42.966;1.608;2023-01-29T04:58:48;98022.31;;;5.90;71.29
52361;BME280;38294;42.966;1.608;2023-01-29T05:01:17;98022.97;;;6.17;69.79
52361;BME280;38294;42.966;1.608;2023-01-29T05:03:48;98022.69;;;6.27;69.85
52361;BME280;38294;42.966;1.608;2023-01-29T05:06:15;98022.97;;;5.95;70.46
52361;BME280;38294;42.966;1.608;2023-01-29T05:08:43;98031.66;;;5.25;72.51
52361;BME280;38294;42.966;1.608;2023-01-29T05:11:10;98029.97;;;5.16;73.31
52361;BME280;38294;42.966;1.608;2023-01-29T05:13:37;98028.31;;;5.42;73.12
52361;BME280;38294;42.966;1.608;2023-01-29T05:16:09;98023.19;;;5.63;72.53
52361;BME280;38294;42.966;1.608;2023-01-29T05:18:37;98023.34;;;4.95;73.26
52361;BME280;38294;42.966;1.608;2023-01-29T05:21:05;98024.16;;;5.45;72.28
52361;BME280;38294;42.966;1.608;2023-01-29T05:23:31;98030.44;;;5.67;71.09
52361;BME280;38294;42.966;1.608;2023-01-29T05:25:57;98032.72;;;5.74;71.25
52361;BME280;38294;42.966;1.608;2023-01-29T05:28:23;98033.81;;;5.51;72.15
52361;BME280;38294;42.966;1.608;2023-01-29T05:30:51;98042.44;;;5.89;71.09
52361;BME280;38294;42.966;1.608;2023-01-29T05:33:22;98036.94;;;6.02;70.82
52361;BME280;38294;42.966;1.608;2023-01-29T05:35:48;98042.16;;;5.54;71.46
52361;BME280;38294;42.966;1.608;2023-01-29T05:38:15;98037.13;;;5.83;71.48
52361;BME280;38294;42.966;1.608;2023-01-29T05:40:42;98038.06;;;6.01;69.97
52361;BME280;38294;42.966;1.608;2023-01-29T05:43:14;98040.28;;;5.99;70.84
52361;BME280;38294;42.966;1.608;2023-01-29T05:45:40;98048.88;;;5.57;70.49
52361;BME280;38294;42.966;1.608;2023-01-29T05:48:06;98050.91;;;5.51;71.56
52361;BME280;38294;42.966;1.608;2023-01-29T05:50:31;98049.13;;;6.05;69.47
52361;BME280;38294;42.966;1.608;2023-01-29T05:52:58;98049.38;;;6.48;68.64
52361;BME280;38294;42.966;1.608;2023-01-29T05:55:25;98055.50;;;6.53;68.55
52361;BME280;38294;42.966;1.608;2023-01-29T05:57:50;98054.22;;;6.59;68.14
52361;BME280;38294;42.966;1.608;2023-01-29T06:00:16;98057.13;;;6.63;67.81
52361;BME280;38294;42.966;1.608;2023-01-29T06:02:42;98056.72;;;6.16;68.19
52361;BME280;38294;42.966;1.608;2023-01-29T06:05:08;98068.28;;;6.53;68.03
52361;BME280;38294;42.966;1.608;2023-01-29T06:07:34;98062.97;;;6.39;67.85
52361;BME280;38294;42.966;1.608;2023-01-29T06:10:01;98074.84;;;5.85;69.10
52361;BME280;38294;42.966;1.608;2023-01-29T06:12:26;98078.66;;;5.62;70.43
52361;BME280;38294;42.966;1.608;2023-01-29T06:14:52;98068.25;;;5.91;69.62
52361;BME280;38294;42.966;1.608;2023-01-29T06:17:17;98071.69;;;5.69;70.73
52361;BME280;38294;42.966;1.608;2023-01-29T06:19:43;98075.59;;;5.77;70.04
52361;BME280;38294;42.966;1.608;2023-01-29T06:22:09;98087.00;;;5.02;72.67
52361;BME280;38294;42.966;1.608;2023-01-29T06:24:35;98083.63;;;5.82;70.03
52361;BME280;38294;42.966;1.608;2023-01-29T06:27:00;98084.31;;;5.65;70.31
52361;BME280;38294;42.966;1.608;2023-01-29T06:29:26;98082.03;;;5.81;70.05
52361;BME280;38294;42.966;1.608;2023-01-29T06:31:51;98090.56;;;5.88;68.63
52361;BME280;38294;42.966;1.608;2023-01-29T06:34:17;98093.19;;;5.44;70.99
52361;BME280;38294;42.966;1.608;2023-01-29T06:36:43;98094.13;;;5.39;71.95
52361;BME280;38294;42.966;1.608;2023-01-29T06:39:08;98098.31;;;5.45;73.12
52361;BME280;38294;42.966;1.608;2023-01-29T06:41:34;98086.28;;;5.73;72.18
52361;BME280;38294;42.966;1.608;2023-01-29T06:43:59;98094.66;;;5.63;73.06
52361;BME280;38294;42.966;1.608;2023-01-29T06:46:25;98091.59;;;6.14;71.61
52361;BME280;38294;42.966;1.608;2023-01-29T06:48:51;98093.19;;;6.15;70.36
52361;BME280;38294;42.966;1.608;2023-01-29T06:51:16;98098.06;;;6.49;69.53
52361;BME280;38294;42.966;1.608;2023-01-29T06:53:42;98101.88;;;6.70;68.64
52361;BME280;38294;42.966;1.608;2023-01-29T06:56:08;98103.13;;;6.64;67.27
52361;BME280;38294;42.966;1.608;2023-01-29T06:58:36;98097.34;;;6.66;66.17
52361;BME280;38294;42.966;1.608;2023-01-29T07:01:09;98091.25;;;6.91;65.95
52361;BME280;38294;42.966;1.608;2023-01-29T07:03:36;98090.47;;;6.99;65.46
52361;BME280;38294;42.966;1.608;2023-01-29T07:06:03;98091.16;;;7.13;65.22
52361;BME280;38294;42.966;1.608;2023-01-29T07:08:29;98095.97;;;7.16;64.95
52361;BME280;38294;42.966;1.608;2023-01-29T07:10:58;98093.50;;;7.63;64.33
52361;BME280;38294;42.966;1.608;2023-01-29T07:13:24;98097.25;;;7.10;65.04
52361;BME280;38294;42.966;1.608;2023-01-29T07:15:51;98105.50;;;7.53;64.69
52361;BME280;38294;42.966;1.608;2023-01-29T07:18:17;98095.47;;;7.14;65.17
52361;BME280;38294;42.966;1.608;2023-01-29T07:20:42;98100.91;;;7.14;65.14
52361;BME280;38294;42.966;1.608;2023-01-29T07:23:11;98095.94;;;7.64;64.26
52361;BME280;38294;42.966;1.608;2023-01-29T07:25:37;98100.78;;;7.11;65.17
52361;BME280;38294;42.966;1.608;2023-01-29T07:28:03;98101.38;;;6.68;67.11
52361;BME280;38294;42.966;1.608;2023-01-29T07:30:29;98106.31;;;6.13;69.87
52361;BME280;38294;42.966;1.608;2023-01-29T07:32:55;98114.81;;;5.98;70.49
52361;BME280;38294;42.966;1.608;2023-01-29T07:35:25;98109.91;;;6.22;69.33
52361;BME280;38294;42.966;1.608;2023-01-29T07:37:50;98124.03;;;5.75;71.36
52361;BME280;38294;42.966;1.608;2023-01-29T07:40:16;98118.53;;;6.02;71.38
52361;BME280;38294;42.966;1.608;2023-01-29T07:42:42;98121.31;;;6.11;71.43
52361;BME280;38294;42.966;1.608;2023-01-29T07:45:09;98112.91;;;5.99;71.70
52361;BME280;38294;42.966;1.608;2023-01-29T07:47:35;98134.19;;;5.83;71.85
52361;BME280;38294;42.966;1.608;2023-01-29T07:50:00;98140.84;;;5.91;71.95
52361;BME280;38294;42.966;1.608;2023-01-29T07:52:28;98143.28;;;5.51;73.96
52361;BME280;38294;42.966;1.608;2023-01-29T07:54:54;98146.22;;;5.41;73.04
52361;BME280;38294;42.966;1.608;2023-01-29T07:57:20;98150.03;;;4.86;74.40
52361;BME280;38294;42.966;1.608;2023-01-29T07:59:45;98147.56;;;5.16;73.02
52361;BME280;38294;42.966;1.608;2023-01-29T08:02:11;98156.41;;;5.85;71.16
52361;BME280;38294;42.966;1.608;2023-01-29T08:04:37;98159.41;;;5.07;73.33
52361;BME280;38294;42.966;1.608;2023-01-29T08:07:02;98165.06;;;5.10;72.53
52361;BME280;38294;42.966;1.608;2023-01-29T08:09:29;98163.13;;;4.97;72.73
52361;BME280;38294;42.966;1.608;2023-01-29T08:11:55;98172.94;;;6.02;69.03
52361;BME280;38294;42.966;1.608;2023-01-29T08:14:22;98163.56;;;6.53;67.47
52361;BME280;38294;42.966;1.608;2023-01-29T08:16:48;98163.91;;;6.82;65.97
52361;BME280;38294;42.966;1.608;2023-01-29T08:19:13;98163.34;;;6.94;65.68
52361;BME280;38294;42.966;1.608;2023-01-29T08:21:39;98159.41;;;7.08;64.55
52361;BME280;38294;42.966;1.608;2023-01-29T08:24:05;98167.94;;;7.24;63.28
52361;BME280;38294;42.966;1.608;2023-01-29T08:26:30;98171.00;;;7.22;62.89
52361;BME280;38294;42.966;1.608;2023-01-29T08:28:56;98176.53;;;7.09;63.07
52361;BME280;38294;42.966;1.608;2023-01-29T08:31:21;98173.16;;;7.03;62.98
52361;BME280;38294;42.966;1.608;2023-01-29T08:33:47;98178.84;;;7.24;63.04
52361;BME280;38294;42.966;1.608;2023-01-29T08:36:13;98173.81;;;7.48;62.61
52361;BME280;38294;42.966;1.608;2023-01-29T08:38:38;98180.22;;;7.44;61.50
52361;BME280;38294;42.966;1.608;2023-01-29T08:41:04;98184.72;;;7.39;61.94
52361;BME280;38294;42.966;1.608;2023-01-29T08:43:30;98182.25;;;7.29;62.25
52361;BME280;38294;42.966;1.608;2023-01-29T08:45:56;98185.94;;;7.33;62.07
52361;BME280;38294;42.966;1.608;2023-01-29T08:48:21;98187.13;;;7.50;62.38
52361;BME280;38294;42.966;1.608;2023-01-29T08:50:47;98192.81;;;7.62;62.07
52361;BME280;38294;42.966;1.608;2023-01-29T08:53:13;98184.00;;;7.82;61.83
52361;BME280;38294;42.966;1.608;2023-01-29T08:55:39;98183.09;;;8.04;61.25
52361;BME280;38294;42.966;1.608;2023-01-29T08:58:09;98188.38;;;8.00;60.95
52361;BME280;38294;42.966;1.608;2023-01-29T09:00:35;98181.28;;;7.82;61.17
52361;BME280;38294;42.966;1.608;2023-01-29T09:03:01;98195.63;;;8.13;60.77
52361;BME280;38294;42.966;1.608;2023-01-29T09:05:27;98197.09;;;8.28;59.59
52361;BME280;38294;42.966;1.608;2023-01-29T09:07:55;98187.81;;;8.46;59.40
52361;BME280;38294;42.966;1.608;2023-01-29T09:10:20;98197.13;;;8.45;59.21
52361;BME280;38294;42.966;1.608;2023-01-29T09:12:46;98195.19;;;8.54;58.89
52361;BME280;38294;42.966;1.608;2023-01-29T09:15:11;98196.31;;;8.53;58.12
52361;BME280;38294;42.966;1.608;2023-01-29T09:17:37;98192.59;;;8.66;57.74
52361;BME280;38294;42.966;1.608;2023-01-29T09:20:03;98194.38;;;8.71;57.77
52361;BME280;38294;42.966;1.608;2023-01-29T09:22:30;98198.72;;;8.72;57.08
52361;BME280;38294;42.966;1.608;2023-01-29T09:24:55;98195.03;;;8.51;57.55
52361;BME280;38294;42.966;1.608;2023-01-29T09:27:21;98195.50;;;8.70;57.60
52361;BME280;38294;42.966;1.608;2023-01-29T09:29:46;98195.63;;;8.90;57.50
52361;BME280;38294;42.966;1.608;2023-01-29T09:32:12;98198.81;;;9.01;56.44
52361;BME280;38294;42.966;1.608;2023-01-29T09:34:38;98195.75;;;9.03;56.32
52361;BME280;38294;42.966;1.608;2023-01-29T09:37:03;98184.31;;;9.09;56.23
52361;BME280;38294;42.966;1.608;2023-01-29T09:39:29;98179.69;;;9.01;56.45
52361;BME280;38294;42.966;1.608;2023-01-29T09:42:06;98188.53;;;9.53;55.50
52361;BME280;38294;42.966;1.608;2023-01-29T09:47:15;98180.78;;;9.84;55.39
52361;BME280;38294;42.966;1.608;2023-01-29T09:50:02;98188.47;;;10.20;53.86
52361;BME280;38294;42.966;1.608;2023-01-29T09:52:41;98196.03;;;9.94;53.34
52361;BME280;38294;42.966;1.608;2023-01-29T09:55:44;98193.66;;;9.84;53.57
52361;BME280;38294;42.966;1.608;2023-01-29T09:58:17;98194.56;;;9.96;54.58
52361;BME280;38294;42.966;1.608;2023-01-29T10:00:53;98194.50;;;9.76;55.58
52361;BME280;38294;42.966;1.608;2023-01-29T10:24:24;98180.19;;;10.29;53.41
52361;BME280;38294;42.966;1.608;2023-01-29T10:26:51;98172.94;;;10.03;54.82
52361;BME280;38294;42.966;1.608;2023-01-29T10:29:20;98175.31;;;10.55;53.95
52361;BME280;38294;42.966;1.608;2023-01-29T10:31:53;98170.66;;;10.88;52.46
52361;BME280;38294;42.966;1.608;2023-01-29T10:34:31;98169.19;;;11.03;51.06
52361;BME280;38294;42.966;1.608;2023-01-29T10:36:58;98158.44;;;10.03;52.50
52361;BME280;38294;42.966;1.608;2023-01-29T10:39:25;98157.06;;;10.38;51.75
52361;BME280;38294;42.966;1.608;2023-01-29T10:42:17;98142.63;;;10.83;50.90
52361;BME280;38294;42.966;1.608;2023-01-29T10:58:46;98130.50;;;11.65;47.92
52361;BME280;38294;42.966;1.608;2023-01-29T11:01:09;98131.28;;;11.17;48.73
52361;BME280;38294;42.966;1.608;2023-01-29T11:03:35;98142.03;;;11.34;49.26
52361;BME280;38294;42.966;1.608;2023-01-29T11:11:52;98132.66;;;12.08;47.18
52361;BME280;38294;42.966;1.608;2023-01-29T11:17:17;98133.16;;;11.49;47.91
52361;BME280;38294;42.966;1.608;2023-01-29T11:19:44;98137.59;;;11.42;47.84
52361;BME280;38294;42.966;1.608;2023-01-29T11:22:15;98119.53;;;11.41;47.41
52361;BME280;38294;42.966;1.608;2023-01-29T11:24:42;98135.22;;;10.09;50.94
52361;BME280;38294;42.966;1.608;2023-01-29T11:27:22;98122.00;;;9.90;52.82
52361;BME280;38294;42.966;1.608;2023-01-29T11:29:52;98126.31;;;9.41;53.33
52361;BME280;38294;42.966;1.608;2023-01-29T11:37:21;98108.75;;;9.13;53.99
52361;BME280;38294;42.966;1.608;2023-01-29T11:39:47;98111.00;;;9.11;53.21
52361;BME280;38294;42.966;1.608;2023-01-29T11:42:21;98113.97;;;8.89;54.94
52361;BME280;38294;42.966;1.608;2023-01-29T11:44:46;98116.63;;;8.68;54.96
52361;BME280;38294;42.966;1.608;2023-01-29T11:47:17;98105.44;;;8.99;53.51
52361;BME280;38294;42.966;1.608;2023-01-29T11:49:52;98105.72;;;8.51;52.98
52361;BME280;38294;42.966;1.608;2023-01-29T11:52:21;98104.53;;;8.78;53.44
52361;BME280;38294;42.966;1.608;2023-01-29T11:55:05;98094.44;;;8.70;52.49
52361;BME280;38294;42.966;1.608;2023-01-29T11:57:39;98092.72;;;7.79;55.29
52361;BME280;38294;42.966;1.608;2023-01-29T12:00:21;98088.22;;;7.92;55.01
52361;BME280;38294;42.966;1.608;2023-01-29T12:02:51;98097.22;;;7.84;54.38
52361;BME280;38294;42.966;1.608;2023-01-29T12:05:20;98089.81;;;7.50;55.27
52361;BME280;38294;42.966;1.608;2023-01-29T12:07:49;98093.88;;;8.13;54.74
52361;BME280;38294;42.966;1.608;2023-01-29T12:10:38;98099.75;;;7.46;55.68
52361;BME280;38294;42.966;1.608;2023-01-29T12:15:48;98086.97;;;7.89;56.04
52361;BME280;38294;42.966;1.608;2023-01-29T12:21:13;98080.88;;;8.01;55.98
52361;BME280;38294;42.966;1.608;2023-01-29T12:23:51;98085.97;;;8.37;54.04
52361;BME280;38294;42.966;1.608;2023-01-29T12:26:27;98079.38;;;9.31;52.73
52361;BME280;38294;42.966;1.608;2023-01-29T12:35:21;98067.81;;;10.37;48.59
52361;BME280;38294;42.966;1.608;2023-01-29T12:41:06;98068.97;;;10.36;47.85
52361;BME280;38294;42.966;1.608;2023-01-29T12:43:46;98067.91;;;10.62;47.65
52361;BME280;38294;42.966;1.608;2023-01-29T12:46:37;98056.34;;;11.01;47.52
52361;BME280;38294;42.966;1.608;2023-01-29T12:49:11;98059.88;;;11.01;47.07
52361;BME280;38294;42.966;1.608;2023-01-29T12:51:57;98059.69;;;10.62;48.18
52361;BME280;38294;42.966;1.608;2023-01-29T12:54:31;98054.03;;;10.79;47.71
52361;BME280;38294;42.966;1.608;2023-01-29T12:57:01;98056.31;;;10.89;47.46
52361;BME280;38294;42.966;1.608;2023-01-29T13:02:32;98065.84;;;9.05;49.94
52361;BME280;38294;42.966;1.608;2023-01-29T13:05:14;98070.91;;;8.94;51.16
52361;BME280;38294;42.966;1.608;2023-01-29T13:07:45;98076.38;;;8.31;53.60
52361;BME280;38294;42.966;1.608;2023-01-29T13:10:17;98081.19;;;8.17;53.76
52361;BME280;38294;42.966;1.608;2023-01-29T13:13:18;98072.03;;;8.93;52.59
52361;BME280;38294;42.966;1.608;2023-01-29T13:15:46;98072.50;;;8.23;54.75
52361;BME280;38294;42.966;1.608;2023-01-29T13:20:58;98079.41;;;7.86;56.07
52361;BME280;38294;42.966;1.608;2023-01-29T13:23:32;98076.81;;;8.24;55.47
52361;BME280;38294;42.966;1.608;2023-01-29T13:25:58;98076.84;;;7.90;54.21
52361;BME280;38294;42.966;1.608;2023-01-29T13:28:25;98075.22;;;7.55;56.04
52361;BME280;38294;42.966;1.608;2023-01-29T13:33:43;98076.94;;;8.71;54.26
52361;BME280;38294;42.966;1.608;2023-01-29T13:36:23;98079.41;;;7.95;55.42
52361;BME280;38294;42.966;1.608;2023-01-29T13:38:57;98082.63;;;8.23;55.42
52361;BME280;38294;42.966;1.608;2023-01-29T13:41:31;98070.44;;;7.77;56.61
52361;BME280;38294;42.966;1.608;2023-01-29T13:43:58;98073.91;;;7.44;57.76
52361;BME280;38294;42.966;1.608;2023-01-29T13:46:23;98074.63;;;7.75;57.31
52361;BME280;38294;42.966;1.608;2023-01-29T13:48:51;98071.06;;;7.66;58.47
52361;BME280;38294;42.966;1.608;2023-01-29T13:51:21;98066.91;;;8.03;57.32
52361;BME280;38294;42.966;1.608;2023-01-29T13:53:54;98076.38;;;8.31;56.78
52361;BME280;38294;42.966;1.608;2023-01-29T13:58:54;98082.47;;;7.76;57.36
52361;BME280;38294;42.966;1.608;2023-01-29T14:04:27;98081.03;;;7.96;57.83
52361;BME280;38294;42.966;1.608;2023-01-29T14:06:56;98083.09;;;7.65;56.94
52361;BME280;38294;42.966;1.608;2023-01-29T14:12:04;98083.44;;;8.06;56.27
52361;BME280;38294;42.966;1.608;2023-01-29T14:17:16;98090.03;;;8.39;55.97
52361;BME280;38294;42.966;1.608;2023-01-29T14:19:50;98083.41;;;8.15;55.48
52361;BME280;38294;42.966;1.608;2023-01-29T14:22:24;98090.31;;;7.86;55.21
52361;BME280;38294;42.966;1.608;2023-01-29T14:24:56;98093.53;;;8.14;54.15
52361;BME280;38294;42.966;1.608;2023-01-29T14:27:24;98092.22;;;7.52;53.61
52361;BME280;38294;42.966;1.608;2023-01-29T14:29:51;98091.28;;;7.99;54.05
52361;BME280;38294;42.966;1.608;2023-01-29T14:32:24;98090.19;;;7.91;53.85
52361;BME280;38294;42.966;1.608;2023-01-29T14:39:55;98099.78;;;7.80;55.23
52361;BME280;38294;42.966;1.608;2023-01-29T14:42:23;98104.34;;;7.37;55.43
52361;BME280;38294;42.966;1.608;2023-01-29T14:47:22;98099.75;;;7.63;54.77
52361;BME280;38294;42.966;1.608;2023-01-29T14:52:51;98098.44;;;7.44;54.61
52361;BME280;38294;42.966;1.608;2023-01-29T14:55:34;98104.28;;;7.59;55.39
52361;BME280;38294;42.966;1.608;2023-01-29T14:58:02;98097.88;;;7.98;53.63
52361;BME280;38294;42.966;1.608;2023-01-29T15:00:40;98099.78;;;7.80;54.42
52361;BME280;38294;42.966;1.608;2023-01-29T15:03:19;98107.97;;;7.72;55.14
52361;BME280;38294;42.966;1.608;2023-01-29T15:05:50;98093.22;;;7.90;54.90
52361;BME280;38294;42.966;1.608;2023-01-29T15:08:32;98098.38;;;8.17;53.98
52361;BME280;38294;42.966;1.608;2023-01-29T15:11:06;98105.09;;;8.37;53.99
52361;BME280;38294;42.966;1.608;2023-01-29T15:13:59;98091.44;;;8.03;54.90
52361;BME280;38294;42.966;1.608;2023-01-29T15:19:41;98101.91;;;8.35;54.32
52361;BME280;38294;42.966;1.608;2023-01-29T15:22:17;98099.81;;;8.23;54.10
52361;BME280;38294;42.966;1.608;2023-01-29T15:24:45;98099.16;;;8.01;55.43
52361;BME280;38294;42.966;1.608;2023-01-29T15:27:18;98093.84;;;8.56;54.27
52361;BME280;38294;42.966;1.608;2023-01-29T15:29:56;98102.22;;;8.16;55.82
52361;BME280;38294;42.966;1.608;2023-01-29T15:32:34;98099.16;;;8.09;55.92
52361;BME280;38294;42.966;1.608;2023-01-29T15:35:06;98103.94;;;8.21;55.99
52361;BME280;38294;42.966;1.608;2023-01-29T15:37:34;98103.47;;;8.27;55.94
52361;BME280;38294;42.966;1.608;2023-01-29T15:40:00;98096.13;;;8.28;55.88
52361;BME280;38294;42.966;1.608;2023-01-29T15:42:28;98103.66;;;8.48;54.89
52361;BME280;38294;42.966;1.608;2023-01-29T15:44:54;98111.13;;;7.48;56.11
52361;BME280;38294;42.966;1.608;2023-01-29T15:47:30;98092.41;;;8.24;55.31
52361;BME280;38294;42.966;1.608;2023-01-29T15:49:56;98097.38;;;7.79;54.98
52361;BME280;38294;42.966;1.608;2023-01-29T15:52:27;98096.13;;;7.93;55.83
52361;BME280;38294;42.966;1.608;2023-01-29T15:54:56;98107.13;;;7.63;55.74
52361;BME280;38294;42.966;1.608;2023-01-29T15:57:33;98100.59;;;7.81;54.64
52361;BME280;38294;42.966;1.608;2023-01-29T16:00:03;98102.50;;;7.55;54.63
52361;BME280;38294;42.966;1.608;2023-01-29T16:02:41;98100.59;;;8.15;54.30
52361;BME280;38294;42.966;1.608;2023-01-29T16:05:13;98110.69;;;7.80;54.87
52361;BME280;38294;42.966;1.608;2023-01-29T16:07:39;98121.06;;;7.44;55.14
52361;BME280;38294;42.966;1.608;2023-01-29T16:10:10;98115.66;;;7.61;54.67
52361;BME280;38294;42.966;1.608;2023-01-29T16:12:39;98122.34;;;7.47;55.28
52361;BME280;38294;42.966;1.608;2023-01-29T16:15:05;98120.41;;;7.47;55.12
52361;BME280;38294;42.966;1.608;2023-01-29T16:17:32;98126.59;;;7.78;55.36
52361;BME280;38294;42.966;1.608;2023-01-29T16:20:04;98120.59;;;7.42;55.89
52361;BME280;38294;42.966;1.608;2023-01-29T16:22:35;98124.47;;;7.58;55.19
52361;BME280;38294;42.966;1.608;2023-01-29T16:25:07;98121.00;;;8.01;54.61
52361;BME280;38294;42.966;1.608;2023-01-29T16:27:35;98125.13;;;7.64;55.07
52361;BME280;38294;42.966;1.608;2023-01-29T16:30:03;98129.00;;;8.06;54.53
52361;BME280;38294;42.966;1.608;2023-01-29T16:32:30;98128.44;;;7.44;55.81
52361;BME280;38294;42.966;1.608;2023-01-29T16:34:57;98134.41;;;7.06;57.25
52361;BME280;38294;42.966;1.608;2023-01-29T16:39:51;98138.31;;;7.22;56.60
52361;BME280;38294;42.966;1.608;2023-01-29T16:45:04;98142.63;;;7.80;56.74
52361;BME280;38294;42.966;1.608;2023-01-29T16:47:39;98143.16;;;7.34;57.86
52361;BME280;38294;42.966;1.608;2023-01-29T16:53:12;98145.28;;;7.46;57.81
52361;BME280;38294;42.966;1.608;2023-01-29T16:55:41;98154.19;;;7.29;58.25
52361;BME280;38294;42.966;1.608;2023-01-29T16:58:19;98156.09;;;7.68;57.29
52361;BME280;38294;42.966;1.608;2023-01-29T17:00:53;98156.44;;;7.75;57.12
52361;BME280;38294;42.966;1.608;2023-01-29T17:03:24;98157.13;;;7.41;58.50
52361;BME280;38294;42.966;1.608;2023-01-29T17:05:52;98162.34;;;7.77;57.01
52361;BME280;38294;42.966;1.608;2023-01-29T17:08:32;98165.28;;;7.32;58.46
52361;BME280;38294;42.966;1.608;2023-01-29T17:10:59;98162.78;;;6.83;59.17
52361;BME280;38294;42.966;1.608;2023-01-29T17:13:42;98168.69;;;6.76;60.40
52361;BME280;38294;42.966;1.608;2023-01-29T17:18:46;98180.25;;;6.15;61.59
52361;BME280;38294;42.966;1.608;2023-01-29T17:21:12;98173.56;;;6.66;60.63
52361;BME280;38294;42.966;1.608;2023-01-29T17:23:37;98176.28;;;6.88;58.98
52361;BME280;38294;42.966;1.608;2023-01-29T17:26:10;98183.53;;;6.70;59.77
52361;BME280;38294;42.966;1.608;2023-01-29T17:28:36;98179.97;;;6.61;59.40
52361;BME280;38294;42.966;1.608;2023-01-29T17:31:01;98185.38;;;6.83;58.73
52361;BME280;38294;42.966;1.608;2023-01-29T17:33:27;98185.16;;;6.71;59.00
52361;BME280;38294;42.966;1.608;2023-01-29T17:35:53;98193.94;;;6.46;59.84
52361;BME280;38294;42.966;1.608;2023-01-29T17:38:19;98194.63;;;6.74;59.67
52361;BME280;38294;42.966;1.608;2023-01-29T17:40:55;98197.50;;;7.00;59.00
52361;BME280;38294;42.966;1.608;2023-01-29T17:43:21;98209.78;;;6.08;60.69
52361;BME280;38294;42.966;1.608;2023-01-29T17:45:47;98207.28;;;6.34;60.33
52361;BME280;38294;42.966;1.608;2023-01-29T17:48:21;98195.09;;;7.29;58.54
52361;BME280;38294;42.966;1.608;2023-01-29T17:50:49;98201.91;;;6.87;59.21
52361;BME280;38294;42.966;1.608;2023-01-29T17:53:17;98209.59;;;7.16;57.93
52361;BME280;38294;42.966;1.608;2023-01-29T17:55:43;98209.16;;;7.22;57.54
52361;BME280;38294;42.966;1.608;2023-01-29T17:58:16;98211.59;;;7.32;57.72
52361;BME280;38294;42.966;1.608;2023-01-29T18:00:42;98217.88;;;6.58;59.16
52361;BME280;38294;42.966;1.608;2023-01-29T18:03:07;98220.75;;;6.75;57.76
52361;BME280;38294;42.966;1.608;2023-01-29T18:05:33;98225.50;;;6.33;59.61
52361;BME280;38294;42.966;1.608;2023-01-29T18:07:59;98222.34;;;6.18;60.06
52361;BME280;38294;42.966;1.608;2023-01-29T18:10:24;98218.06;;;6.61;58.91
52361;BME280;38294;42.966;1.608;2023-01-29T18:12:50;98226.66;;;6.99;57.77
52361;BME280;38294;42.966;1.608;2023-01-29T18:15:16;98230.88;;;6.61;59.06
52361;BME280;38294;42.966;1.608;2023-01-29T18:17:41;98229.44;;;6.63;58.83
52361;BME280;38294;42.966;1.608;2023-01-29T18:20:33;98228.19;;;6.92;58.99
52361;BME280;38294;42.966;1.608;2023-01-29T18:23:02;98234.47;;;7.23;58.42
52361;BME280;38294;42.966;1.608;2023-01-29T18:25:29;98235.16;;;7.68;56.40
52361;BME280;38294;42.966;1.608;2023-01-29T18:27:55;98235.22;;;7.85;56.08
52361;BME280;38294;42.966;1.608;2023-01-29T18:30:21;98241.91;;;7.79;56.30
52361;BME280;38294;42.966;1.608;2023-01-29T18:32:47;98235.59;;;8.01;55.89
52361;BME280;38294;42.966;1.608;2023-01-29T18:35:14;98237.16;;;7.93;55.87
52361;BME280;38294;42.966;1.608;2023-01-29T18:37:41;98244.84;;;6.90;58.79
52361;BME280;38294;42.966;1.608;2023-01-29T18:40:08;98245.84;;;6.94;59.01
52361;BME280;38294;42.966;1.608;2023-01-29T18:42:34;98244.28;;;6.79;59.57
52361;BME280;38294;42.966;1.608;2023-01-29T18:45:01;98240.47;;;7.73;57.50
52361;BME280;38294;42.966;1.608;2023-01-29T18:47:28;98239.44;;;7.60;57.39
52361;BME280;38294;42.966;1.608;2023-01-29T18:49:53;98244.53;;;7.92;56.32
52361;BME280;38294;42.966;1.608;2023-01-29T18:52:19;98250.72;;;7.76;57.18
52361;BME280;38294;42.966;1.608;2023-01-29T18:54:45;98241.78;;;7.75;57.03
52361;BME280;38294;42.966;1.608;2023-01-29T18:57:11;98247.34;;;7.62;57.48
52361;BME280;38294;42.966;1.608;2023-01-29T18:59:36;98255.25;;;7.10;58.36
52361;BME280;38294;42.966;1.608;2023-01-29T19:02:02;98242.56;;;7.36;57.72
52361;BME280;38294;42.966;1.608;2023-01-29T19:04:27;98245.06;;;7.55;57.70
52361;BME280;38294;42.966;1.608;2023-01-29T19:06:53;98244.81;;;7.74;56.67
52361;BME280;38294;42.966;1.608;2023-01-29T19:09:19;98245.94;;;7.11;58.49
52361;BME280;38294;42.966;1.608;2023-01-29T19:11:45;98244.97;;;6.63;59.30
52361;BME280;38294;42.966;1.608;2023-01-29T19:14:10;98251.84;;;6.24;60.83
52361;BME280;38294;42.966;1.608;2023-01-29T19:16:36;98249.44;;;6.23;61.17
52361;BME280;38294;42.966;1.608;2023-01-29T19:19:01;98253.50;;;6.48;60.86
52361;BME280;38294;42.966;1.608;2023-01-29T19:21:27;98247.81;;;6.58;60.32
52361;BME280;38294;42.966;1.608;2023-01-29T19:23:54;98252.06;;;6.50;61.19
52361;BME280;38294;42.966;1.608;2023-01-29T19:26:20;98257.19;;;6.29;61.30